Airfield :
LOGIN :

Register | Disclaimer

   EN    FR    IT 

 










Legend :    VFR   Marginal VFR   IFR   Intensive IFR   Very Intensive IFR
Visi :
Ceiling :
>= 8 km
>= 3000ft
5 to 8 km
1000 to 3000 ft
1500m to 5 km
500 to 1000 ft
800 to 1500m
200 to 500 ft
< 800m
< 200 ft
Symbols :   Thunderstorms  Fog  Heavy snow  Heavy precipitations  Wind > 20 kt
SIGMETs :     Misc.  Thunderstorms  Icing  Turbulence  Mountain Waves  Volcanic Ashes







- Airport Elevation : 796 ft
- IATA code : SYT
- Download approach charts


LFLN - Saint-Yan

CURRENT METAR :
  • 180230Z AUTO 32005KT 9999 OVC018 01/01 Q1018

EXPIRED METARs :
  • 180200Z AUTO 32005KT 9999 BKN011 BKN016 OVC022 02/01 Q1018
  • 180130Z AUTO 27006KT 9999 BKN009 OVC015 02/01 Q1018
  • 180100Z AUTO 19001KT 9999 BKN016 OVC080 01/01 Q1018
  • 180030Z AUTO 34005KT CAVOK 01/00 Q1018
  • 180000Z AUTO 33006KT 9999 FEW037 SCT068 OVC080 02/01 Q1018

Expired Forecast.
No reported NOTAMs for that airfield.
1 SIGMET reported for the Marseille FIR (LFMM) :
 
Severe mountain waves
LFMM SIGMET 1 VALID 180000/180400 LFPW
LFMM MARSEILLE FIR/UIR SEV MTW FCST WI N4315 E00945 - N4115 E00945 - N4115 E00900 - N4300 E00845 - N4315 E00945 SFC/FL200 STNR INTSF=



MET'MAP, your aeronautical weather chart ! - Copyright ORBIFLY December 2007 - Disclaimer

ORBIFLY MET'MAP TEAM :

Programming & Development : Alexandra Zaïnal
Concept & Development : Baudouin d'Aumeries
Co-Development & Prog : Marc-Olivier Méhu
Technical & hardware support : Manuel Goepfert

Contact : metmap@orbifly.com




SOURCES & CREDITS :

   NOAA